sensor_id;sensor_type;location;lat;lon;timestamp;temperature;humidity
45060;DHT22;30799;49.060;9.312;2022-12-07T00:01:38;19.50;71.90
45060;DHT22;30799;49.060;9.312;2022-12-07T00:04:06;19.50;71.70
45060;DHT22;30799;49.060;9.312;2022-12-07T00:06:35;19.50;71.60
45060;DHT22;30799;49.060;9.312;2022-12-07T00:09:06;19.50;71.70
45060;DHT22;30799;49.060;9.312;2022-12-07T00:11:33;19.50;71.70
45060;DHT22;30799;49.060;9.312;2022-12-07T00:14:06;19.50;71.90
45060;DHT22;30799;49.060;9.312;2022-12-07T00:16:34;19.50;71.70
45060;DHT22;30799;49.060;9.312;2022-12-07T00:19:02;19.60;71.90
45060;DHT22;30799;49.060;9.312;2022-12-07T00:21:31;19.60;71.70
45060;DHT22;30799;49.060;9.312;2022-12-07T00:23:58;19.50;72.70
45060;DHT22;30799;49.060;9.312;2022-12-07T00:26:34;19.60;72.00
45060;DHT22;30799;49.060;9.312;2022-12-07T00:29:04;19.60;72.20
45060;DHT22;30799;49.060;9.312;2022-12-07T00:31:35;19.60;72.30
45060;DHT22;30799;49.060;9.312;2022-12-07T00:34:14;19.60;72.30
45060;DHT22;30799;49.060;9.312;2022-12-07T00:36:40;19.60;71.90
45060;DHT22;30799;49.060;9.312;2022-12-07T00:39:07;19.60;72.20
45060;DHT22;30799;49.060;9.312;2022-12-07T00:41:34;19.60;72.60
45060;DHT22;30799;49.060;9.312;2022-12-07T00:44:01;19.60;72.40
45060;DHT22;30799;49.060;9.312;2022-12-07T00:46:29;19.60;72.40
45060;DHT22;30799;49.060;9.312;2022-12-07T00:48:56;19.60;72.40
45060;DHT22;30799;49.060;9.312;2022-12-07T00:51:24;19.70;72.50
45060;DHT22;30799;49.060;9.312;2022-12-07T00:53:50;19.60;72.60
45060;DHT22;30799;49.060;9.312;2022-12-07T00:56:28;19.70;72.70
45060;DHT22;30799;49.060;9.312;2022-12-07T00:59:01;19.70;72.80
45060;DHT22;30799;49.060;9.312;2022-12-07T01:01:30;19.70;72.90
45060;DHT22;30799;49.060;9.312;2022-12-07T01:03:57;19.70;73.00
45060;DHT22;30799;49.060;9.312;2022-12-07T01:06:25;19.70;73.10
45060;DHT22;30799;49.060;9.312;2022-12-07T01:08:52;19.70;73.10
45060;DHT22;30799;49.060;9.312;2022-12-07T01:11:21;19.70;73.10
45060;DHT22;30799;49.060;9.312;2022-12-07T01:13:50;19.70;73.20
45060;DHT22;30799;49.060;9.312;2022-12-07T01:16:18;19.70;73.30
45060;DHT22;30799;49.060;9.312;2022-12-07T01:18:49;19.70;73.50
45060;DHT22;30799;49.060;9.312;2022-12-07T01:21:25;19.70;73.40
45060;DHT22;30799;49.060;9.312;2022-12-07T01:23:52;19.70;73.60
45060;DHT22;30799;49.060;9.312;2022-12-07T01:26:22;19.70;73.90
45060;DHT22;30799;49.060;9.312;2022-12-07T01:28:49;19.70;73.80
45060;DHT22;30799;49.060;9.312;2022-12-07T01:31:18;19.70;73.80
45060;DHT22;30799;49.060;9.312;2022-12-07T01:33:47;19.70;74.40
45060;DHT22;30799;49.060;9.312;2022-12-07T01:36:20;19.80;79.40
45060;DHT22;30799;49.060;9.312;2022-12-07T01:38:49;19.70;81.70
45060;DHT22;30799;49.060;9.312;2022-12-07T01:41:18;19.70;79.60
45060;DHT22;30799;49.060;9.312;2022-12-07T01:44:09;19.80;76.30
45060;DHT22;30799;49.060;9.312;2022-12-07T01:46:36;19.80;74.80
45060;DHT22;30799;49.060;9.312;2022-12-07T01:49:09;19.80;74.10
45060;DHT22;30799;49.060;9.312;2022-12-07T01:51:37;19.80;73.30
45060;DHT22;30799;49.060;9.312;2022-12-07T01:54:06;19.80;73.40
45060;DHT22;30799;49.060;9.312;2022-12-07T01:56:33;19.80;72.90
45060;DHT22;30799;49.060;9.312;2022-12-07T01:59:01;19.80;72.70
45060;DHT22;30799;49.060;9.312;2022-12-07T02:01:28;19.80;72.70
45060;DHT22;30799;49.060;9.312;2022-12-07T02:03:55;19.80;72.80
45060;DHT22;30799;49.060;9.312;2022-12-07T02:06:24;19.80;72.60
45060;DHT22;30799;49.060;9.312;2022-12-07T02:08:52;19.80;72.50
45060;DHT22;30799;49.060;9.312;2022-12-07T02:11:20;19.80;72.40
45060;DHT22;30799;49.060;9.312;2022-12-07T02:13:47;19.80;72.50
45060;DHT22;30799;49.060;9.312;2022-12-07T02:16:23;19.80;72.60
45060;DHT22;30799;49.060;9.312;2022-12-07T02:19:14;19.80;72.50
45060;DHT22;30799;49.060;9.312;2022-12-07T02:22:22;19.80;72.50
45060;DHT22;30799;49.060;9.312;2022-12-07T02:27:50;19.90;72.60
45060;DHT22;30799;49.060;9.312;2022-12-07T02:30:20;19.90;72.60
45060;DHT22;30799;49.060;9.312;2022-12-07T02:32:58;19.90;72.60
45060;DHT22;30799;49.060;9.312;2022-12-07T02:35:55;19.90;72.70
45060;DHT22;30799;49.060;9.312;2022-12-07T02:38:37;19.90;72.60
45060;DHT22;30799;49.060;9.312;2022-12-07T02:41:22;19.90;72.60
45060;DHT22;30799;49.060;9.312;2022-12-07T02:43:53;19.90;72.70
45060;DHT22;30799;49.060;9.312;2022-12-07T02:46:32;19.90;72.70
45060;DHT22;30799;49.060;9.312;2022-12-07T02:49:00;19.90;72.60
45060;DHT22;30799;49.060;9.312;2022-12-07T02:51:31;19.90;72.70
45060;DHT22;30799;49.060;9.312;2022-12-07T02:53:58;19.90;72.70
45060;DHT22;30799;49.060;9.312;2022-12-07T02:59:28;19.90;72.70
45060;DHT22;30799;49.060;9.312;2022-12-07T03:02:07;19.90;73.00
45060;DHT22;30799;49.060;9.312;2022-12-07T03:07:42;19.90;72.80
45060;DHT22;30799;49.060;9.312;2022-12-07T03:10:19;19.90;72.80
45060;DHT22;30799;49.060;9.312;2022-12-07T03:18:19;20.00;72.70
45060;DHT22;30799;49.060;9.312;2022-12-07T03:20:49;20.00;72.80
45060;DHT22;30799;49.060;9.312;2022-12-07T03:23:18;20.00;72.80
45060;DHT22;30799;49.060;9.312;2022-12-07T03:25:48;20.00;72.90
45060;DHT22;30799;49.060;9.312;2022-12-07T03:28:24;20.00;72.70
45060;DHT22;30799;49.060;9.312;2022-12-07T03:31:01;20.00;72.80
45060;DHT22;30799;49.060;9.312;2022-12-07T03:33:49;20.00;72.70
45060;DHT22;30799;49.060;9.312;2022-12-07T03:36:29;20.00;72.80
45060;DHT22;30799;49.060;9.312;2022-12-07T03:41:48;20.00;72.80
45060;DHT22;30799;49.060;9.312;2022-12-07T03:44:16;20.10;73.00
45060;DHT22;30799;49.060;9.312;2022-12-07T03:46:57;20.00;72.70
45060;DHT22;30799;49.060;9.312;2022-12-07T03:49:54;20.00;72.90
45060;DHT22;30799;49.060;9.312;2022-12-07T03:52:26;20.10;72.90
45060;DHT22;30799;49.060;9.312;2022-12-07T03:55:03;20.00;72.60
45060;DHT22;30799;49.060;9.312;2022-12-07T03:57:33;19.90;72.80
45060;DHT22;30799;49.060;9.312;2022-12-07T04:00:02;20.00;72.90
45060;DHT22;30799;49.060;9.312;2022-12-07T04:02:30;20.00;72.90
45060;DHT22;30799;49.060;9.312;2022-12-07T04:04:56;20.00;72.90
45060;DHT22;30799;49.060;9.312;2022-12-07T04:07:23;20.10;73.00
45060;DHT22;30799;49.060;9.312;2022-12-07T04:09:50;20.10;73.00
45060;DHT22;30799;49.060;9.312;2022-12-07T04:12:17;20.10;73.10
45060;DHT22;30799;49.060;9.312;2022-12-07T04:14:44;20.10;73.00
45060;DHT22;30799;49.060;9.312;2022-12-07T04:17:11;20.10;73.00
45060;DHT22;30799;49.060;9.312;2022-12-07T04:19:38;20.10;72.90
45060;DHT22;30799;49.060;9.312;2022-12-07T04:22:05;20.00;72.90
45060;DHT22;30799;49.060;9.312;2022-12-07T04:24:33;20.10;73.10
45060;DHT22;30799;49.060;9.312;2022-12-07T04:27:00;20.10;73.00
45060;DHT22;30799;49.060;9.312;2022-12-07T04:29:27;20.10;73.00
45060;DHT22;30799;49.060;9.312;2022-12-07T04:31:53;20.10;73.00
45060;DHT22;30799;49.060;9.312;2022-12-07T04:34:20;20.10;73.30
45060;DHT22;30799;49.060;9.312;2022-12-07T04:36:47;20.10;73.10
45060;DHT22;30799;49.060;9.312;2022-12-07T04:39:26;20.10;73.10
45060;DHT22;30799;49.060;9.312;2022-12-07T04:41:53;20.10;73.00
45060;DHT22;30799;49.060;9.312;2022-12-07T04:44:21;20.10;73.00
45060;DHT22;30799;49.060;9.312;2022-12-07T04:46:48;20.10;73.10
45060;DHT22;30799;49.060;9.312;2022-12-07T04:49:15;20.20;72.90
45060;DHT22;30799;49.060;9.312;2022-12-07T04:51:43;20.20;73.00
45060;DHT22;30799;49.060;9.312;2022-12-07T04:54:10;20.20;73.10
45060;DHT22;30799;49.060;9.312;2022-12-07T04:56:37;20.20;73.20
45060;DHT22;30799;49.060;9.312;2022-12-07T04:59:05;20.20;73.10
45060;DHT22;30799;49.060;9.312;2022-12-07T05:01:32;20.20;72.90
45060;DHT22;30799;49.060;9.312;2022-12-07T05:03:59;20.20;72.80
45060;DHT22;30799;49.060;9.312;2022-12-07T05:06:25;20.20;73.00
45060;DHT22;30799;49.060;9.312;2022-12-07T05:08:52;20.20;73.00
45060;DHT22;30799;49.060;9.312;2022-12-07T05:11:19;20.20;72.90
45060;DHT22;30799;49.060;9.312;2022-12-07T05:16:33;20.20;73.00
45060;DHT22;30799;49.060;9.312;2022-12-07T05:18:59;20.20;72.90
45060;DHT22;30799;49.060;9.312;2022-12-07T05:21:26;20.20;72.90
45060;DHT22;30799;49.060;9.312;2022-12-07T05:23:53;20.20;72.90
45060;DHT22;30799;49.060;9.312;2022-12-07T05:26:19;20.20;72.90
45060;DHT22;30799;49.060;9.312;2022-12-07T05:28:53;20.20;73.00
45060;DHT22;30799;49.060;9.312;2022-12-07T05:31:19;20.20;73.00
45060;DHT22;30799;49.060;9.312;2022-12-07T05:33:47;20.20;73.10
45060;DHT22;30799;49.060;9.312;2022-12-07T05:36:13;20.20;73.10
45060;DHT22;30799;49.060;9.312;2022-12-07T05:38:40;20.20;72.90
45060;DHT22;30799;49.060;9.312;2022-12-07T05:41:08;20.20;72.70
45060;DHT22;30799;49.060;9.312;2022-12-07T05:43:55;20.20;73.20
45060;DHT22;30799;49.060;9.312;2022-12-07T05:46:22;20.20;72.10
45060;DHT22;30799;49.060;9.312;2022-12-07T05:48:49;20.20;72.30
45060;DHT22;30799;49.060;9.312;2022-12-07T05:51:16;20.20;71.90
45060;DHT22;30799;49.060;9.312;2022-12-07T05:53:42;20.20;72.00
45060;DHT22;30799;49.060;9.312;2022-12-07T05:56:09;18.30;50.10
45060;DHT22;30799;49.060;9.312;2022-12-07T05:58:35;16.30;51.90
45060;DHT22;30799;49.060;9.312;2022-12-07T06:01:20;15.00;76.60
45060;DHT22;30799;49.060;9.312;2022-12-07T06:03:47;14.60;80.20
45060;DHT22;30799;49.060;9.312;2022-12-07T06:06:13;14.20;61.50
45060;DHT22;30799;49.060;9.312;2022-12-07T06:08:40;14.10;76.60
45060;DHT22;30799;49.060;9.312;2022-12-07T06:11:07;14.00;67.20
45060;DHT22;30799;49.060;9.312;2022-12-07T06:13:52;15.20;64.70
45060;DHT22;30799;49.060;9.312;2022-12-07T06:16:19;16.70;76.30
45060;DHT22;30799;49.060;9.312;2022-12-07T06:18:45;18.30;79.40
45060;DHT22;30799;49.060;9.312;2022-12-07T06:21:12;18.10;83.80
45060;DHT22;30799;49.060;9.312;2022-12-07T06:23:38;18.50;85.60
45060;DHT22;30799;49.060;9.312;2022-12-07T06:26:05;18.60;93.00
45060;DHT22;30799;49.060;9.312;2022-12-07T06:28:31;18.70;92.30
45060;DHT22;30799;49.060;9.312;2022-12-07T06:30:59;19.00;94.30
45060;DHT22;30799;49.060;9.312;2022-12-07T06:33:26;18.90;73.60
45060;DHT22;30799;49.060;9.312;2022-12-07T06:35:52;19.00;75.10
45060;DHT22;30799;49.060;9.312;2022-12-07T06:38:19;19.10;77.30
45060;DHT22;30799;49.060;9.312;2022-12-07T06:40:45;19.20;75.70
45060;DHT22;30799;49.060;9.312;2022-12-07T06:43:12;19.20;74.90
45060;DHT22;30799;49.060;9.312;2022-12-07T06:45:40;19.30;74.40
45060;DHT22;30799;49.060;9.312;2022-12-07T06:48:07;19.30;74.40
45060;DHT22;30799;49.060;9.312;2022-12-07T06:50:33;19.30;74.10
45060;DHT22;30799;49.060;9.312;2022-12-07T06:53:00;19.40;74.20
45060;DHT22;30799;49.060;9.312;2022-12-07T06:55:27;19.40;74.10
45060;DHT22;30799;49.060;9.312;2022-12-07T06:57:53;19.40;74.10
45060;DHT22;30799;49.060;9.312;2022-12-07T07:00:20;19.40;74.20
45060;DHT22;30799;49.060;9.312;2022-12-07T07:02:48;19.50;74.40
45060;DHT22;30799;49.060;9.312;2022-12-07T07:05:15;19.50;74.50
45060;DHT22;30799;49.060;9.312;2022-12-07T07:07:42;19.50;74.80
45060;DHT22;30799;49.060;9.312;2022-12-07T07:10:29;19.50;74.80
45060;DHT22;30799;49.060;9.312;2022-12-07T07:12:56;19.60;74.70
45060;DHT22;30799;49.060;9.312;2022-12-07T07:15:23;19.60;74.80
45060;DHT22;30799;49.060;9.312;2022-12-07T07:17:50;19.60;74.90
45060;DHT22;30799;49.060;9.312;2022-12-07T07:20:17;19.60;75.00
45060;DHT22;30799;49.060;9.312;2022-12-07T07:22:44;19.60;75.20
45060;DHT22;30799;49.060;9.312;2022-12-07T07:25:10;19.70;75.50
45060;DHT22;30799;49.060;9.312;2022-12-07T07:27:37;19.60;75.30
45060;DHT22;30799;49.060;9.312;2022-12-07T07:30:04;19.70;75.20
45060;DHT22;30799;49.060;9.312;2022-12-07T07:32:31;19.70;75.30
45060;DHT22;30799;49.060;9.312;2022-12-07T07:34:57;19.70;75.50
45060;DHT22;30799;49.060;9.312;2022-12-07T07:37:24;19.70;75.60
45060;DHT22;30799;49.060;9.312;2022-12-07T07:39:51;19.70;76.10
45060;DHT22;30799;49.060;9.312;2022-12-07T07:42:17;19.80;75.90
45060;DHT22;30799;49.060;9.312;2022-12-07T07:44:44;19.80;75.80
45060;DHT22;30799;49.060;9.312;2022-12-07T07:47:10;19.80;75.80
45060;DHT22;30799;49.060;9.312;2022-12-07T07:49:37;19.80;76.00
45060;DHT22;30799;49.060;9.312;2022-12-07T07:52:11;19.80;76.10
45060;DHT22;30799;49.060;9.312;2022-12-07T07:54:38;19.80;77.00
45060;DHT22;30799;49.060;9.312;2022-12-07T07:57:05;19.80;76.20
45060;DHT22;30799;49.060;9.312;2022-12-07T07:59:31;19.80;76.30
45060;DHT22;30799;49.060;9.312;2022-12-07T08:01:58;19.80;76.10
45060;DHT22;30799;49.060;9.312;2022-12-07T08:04:25;19.80;76.60
45060;DHT22;30799;49.060;9.312;2022-12-07T08:06:52;19.80;76.50
45060;DHT22;30799;49.060;9.312;2022-12-07T08:09:19;19.80;76.40
45060;DHT22;30799;49.060;9.312;2022-12-07T08:11:45;19.80;76.60
45060;DHT22;30799;49.060;9.312;2022-12-07T08:14:12;19.90;76.60
45060;DHT22;30799;49.060;9.312;2022-12-07T08:16:38;19.90;76.60
45060;DHT22;30799;49.060;9.312;2022-12-07T08:19:06;19.90;76.70
45060;DHT22;30799;49.060;9.312;2022-12-07T08:21:33;19.90;76.60
45060;DHT22;30799;49.060;9.312;2022-12-07T08:23:59;19.90;76.80
45060;DHT22;30799;49.060;9.312;2022-12-07T08:26:26;19.90;76.70
45060;DHT22;30799;49.060;9.312;2022-12-07T08:28:53;19.90;77.20
45060;DHT22;30799;49.060;9.312;2022-12-07T08:31:20;19.90;77.00
45060;DHT22;30799;49.060;9.312;2022-12-07T08:33:47;19.90;77.00
45060;DHT22;30799;49.060;9.312;2022-12-07T08:36:14;19.90;77.20
45060;DHT22;30799;49.060;9.312;2022-12-07T08:38:41;19.90;77.20
45060;DHT22;30799;49.060;9.312;2022-12-07T08:41:28;19.90;77.40
45060;DHT22;30799;49.060;9.312;2022-12-07T08:43:55;19.90;77.20
45060;DHT22;30799;49.060;9.312;2022-12-07T08:49:12;19.90;77.10
45060;DHT22;30799;49.060;9.312;2022-12-07T08:51:39;19.90;77.60
45060;DHT22;30799;49.060;9.312;2022-12-07T08:54:10;19.90;77.20
45060;DHT22;30799;49.060;9.312;2022-12-07T08:56:38;19.90;77.20
45060;DHT22;30799;49.060;9.312;2022-12-07T08:59:05;19.90;77.20
45060;DHT22;30799;49.060;9.312;2022-12-07T09:01:32;19.90;77.40
45060;DHT22;30799;49.060;9.312;2022-12-07T09:03:59;20.00;77.50
45060;DHT22;30799;49.060;9.312;2022-12-07T09:06:26;20.00;77.40
45060;DHT22;30799;49.060;9.312;2022-12-07T09:08:57;20.00;77.50
45060;DHT22;30799;49.060;9.312;2022-12-07T09:11:24;19.90;77.70
45060;DHT22;30799;49.060;9.312;2022-12-07T09:13:54;19.90;77.50
45060;DHT22;30799;49.060;9.312;2022-12-07T09:16:21;20.00;77.70
45060;DHT22;30799;49.060;9.312;2022-12-07T09:18:48;20.00;77.80
45060;DHT22;30799;49.060;9.312;2022-12-07T09:21:15;20.00;77.70
45060;DHT22;30799;49.060;9.312;2022-12-07T09:23:42;20.00;77.80
45060;DHT22;30799;49.060;9.312;2022-12-07T09:26:09;20.00;77.70
45060;DHT22;30799;49.060;9.312;2022-12-07T09:28:37;20.00;77.90
45060;DHT22;30799;49.060;9.312;2022-12-07T09:31:04;20.00;77.80
45060;DHT22;30799;49.060;9.312;2022-12-07T09:33:59;20.00;77.90
45060;DHT22;30799;49.060;9.312;2022-12-07T09:36:27;20.00;78.00
45060;DHT22;30799;49.060;9.312;2022-12-07T09:38:54;20.00;77.90
45060;DHT22;30799;49.060;9.312;2022-12-07T09:41:22;20.00;78.00
45060;DHT22;30799;49.060;9.312;2022-12-07T09:43:50;20.00;78.20
45060;DHT22;30799;49.060;9.312;2022-12-07T09:46:19;20.00;78.20
45060;DHT22;30799;49.060;9.312;2022-12-07T09:48:47;20.00;78.60
45060;DHT22;30799;49.060;9.312;2022-12-07T09:51:22;20.00;78.40
45060;DHT22;30799;49.060;9.312;2022-12-07T09:53:53;20.00;78.20
45060;DHT22;30799;49.060;9.312;2022-12-07T09:56:21;20.00;78.20
45060;DHT22;30799;49.060;9.312;2022-12-07T09:58:51;20.00;78.40
45060;DHT22;30799;49.060;9.312;2022-12-07T10:01:21;20.00;78.50
45060;DHT22;30799;49.060;9.312;2022-12-07T10:03:54;20.00;78.40
45060;DHT22;30799;49.060;9.312;2022-12-07T10:06:21;20.00;78.70
45060;DHT22;30799;49.060;9.312;2022-12-07T10:08:48;20.00;78.40
45060;DHT22;30799;49.060;9.312;2022-12-07T10:11:15;20.00;78.70
45060;DHT22;30799;49.060;9.312;2022-12-07T10:13:45;20.00;78.30
45060;DHT22;30799;49.060;9.312;2022-12-07T10:16:39;20.00;78.40
45060;DHT22;30799;49.060;9.312;2022-12-07T10:19:24;20.00;78.80
45060;DHT22;30799;49.060;9.312;2022-12-07T10:24:26;20.00;78.50
45060;DHT22;30799;49.060;9.312;2022-12-07T10:26:54;20.00;79.00
45060;DHT22;30799;49.060;9.312;2022-12-07T10:29:22;20.00;78.50
45060;DHT22;30799;49.060;9.312;2022-12-07T10:31:56;20.00;78.50
45060;DHT22;30799;49.060;9.312;2022-12-07T10:34:31;20.00;78.70
45060;DHT22;30799;49.060;9.312;2022-12-07T10:42:23;20.00;78.40
45060;DHT22;30799;49.060;9.312;2022-12-07T10:53:40;20.00;78.40
45060;DHT22;30799;49.060;9.312;2022-12-07T10:56:35;20.00;78.50
45060;DHT22;30799;49.060;9.312;2022-12-07T11:02:19;20.00;78.30
45060;DHT22;30799;49.060;9.312;2022-12-07T11:04:54;20.00;78.40
45060;DHT22;30799;49.060;9.312;2022-12-07T11:07:37;20.00;78.20
45060;DHT22;30799;49.060;9.312;2022-12-07T11:24:27;20.00;77.70
45060;DHT22;30799;49.060;9.312;2022-12-07T11:32:44;20.00;77.80
45060;DHT22;30799;49.060;9.312;2022-12-07T11:35:51;20.00;77.80
45060;DHT22;30799;49.060;9.312;2022-12-07T11:38:25;20.00;77.80
45060;DHT22;30799;49.060;9.312;2022-12-07T11:41:00;20.00;77.90
45060;DHT22;30799;49.060;9.312;2022-12-07T11:44:05;19.90;77.20
45060;DHT22;30799;49.060;9.312;2022-12-07T11:46:45;20.00;77.60
45060;DHT22;30799;49.060;9.312;2022-12-07T11:51:45;20.00;77.50
45060;DHT22;30799;49.060;9.312;2022-12-07T11:54:24;19.90;77.10
45060;DHT22;30799;49.060;9.312;2022-12-07T11:56:53;20.00;77.00
45060;DHT22;30799;49.060;9.312;2022-12-07T11:59:40;20.00;77.30
45060;DHT22;30799;49.060;9.312;2022-12-07T12:02:22;20.00;77.30
45060;DHT22;30799;49.060;9.312;2022-12-07T12:05:05;20.00;77.60
45060;DHT22;30799;49.060;9.312;2022-12-07T12:07:34;20.00;77.00
45060;DHT22;30799;49.060;9.312;2022-12-07T12:21:35;20.00;77.40
45060;DHT22;30799;49.060;9.312;2022-12-07T12:24:11;20.00;77.30
45060;DHT22;30799;49.060;9.312;2022-12-07T12:26:52;20.00;77.50
45060;DHT22;30799;49.060;9.312;2022-12-07T12:29:39;20.00;77.50
45060;DHT22;30799;49.060;9.312;2022-12-07T12:32:20;20.00;77.30
45060;DHT22;30799;49.060;9.312;2022-12-07T12:42:54;20.00;77.10
45060;DHT22;30799;49.060;9.312;2022-12-07T12:45:30;20.00;77.40
45060;DHT22;30799;49.060;9.312;2022-12-07T12:47:58;20.00;77.20
45060;DHT22;30799;49.060;9.312;2022-12-07T12:50:36;20.00;77.20
45060;DHT22;30799;49.060;9.312;2022-12-07T12:53:14;20.00;77.20
45060;DHT22;30799;49.060;9.312;2022-12-07T13:00:46;20.00;77.10
45060;DHT22;30799;49.060;9.312;2022-12-07T13:03:26;20.00;77.30
45060;DHT22;30799;49.060;9.312;2022-12-07T13:08:53;20.00;77.20
45060;DHT22;30799;49.060;9.312;2022-12-07T13:11:35;20.00;77.30
45060;DHT22;30799;49.060;9.312;2022-12-07T13:17:11;20.00;77.10
45060;DHT22;30799;49.060;9.312;2022-12-07T13:20:03;20.00;77.00
45060;DHT22;30799;49.060;9.312;2022-12-07T13:28:01;20.00;77.30
45060;DHT22;30799;49.060;9.312;2022-12-07T13:30:29;20.10;77.20
45060;DHT22;30799;49.060;9.312;2022-12-07T13:32:58;20.00;77.20
45060;DHT22;30799;49.060;9.312;2022-12-07T13:35:29;20.00;77.30
45060;DHT22;30799;49.060;9.312;2022-12-07T13:37:56;20.00;77.30
45060;DHT22;30799;49.060;9.312;2022-12-07T13:40:23;20.00;77.20
45060;DHT22;30799;49.060;9.312;2022-12-07T13:43:02;20.00;77.20
45060;DHT22;30799;49.060;9.312;2022-12-07T13:45:30;20.00;77.20
45060;DHT22;30799;49.060;9.312;2022-12-07T13:48:35;20.10;77.40
45060;DHT22;30799;49.060;9.312;2022-12-07T13:51:03;20.10;77.30
45060;DHT22;30799;49.060;9.312;2022-12-07T13:53:30;20.00;77.30
45060;DHT22;30799;49.060;9.312;2022-12-07T13:56:01;20.10;77.30
45060;DHT22;30799;49.060;9.312;2022-12-07T13:58:30;20.00;77.20
45060;DHT22;30799;49.060;9.312;2022-12-07T14:00:58;20.00;77.20
45060;DHT22;30799;49.060;9.312;2022-12-07T14:03:37;20.00;77.30
45060;DHT22;30799;49.060;9.312;2022-12-07T14:06:11;20.00;77.40
45060;DHT22;30799;49.060;9.312;2022-12-07T14:08:40;20.00;77.30
45060;DHT22;30799;49.060;9.312;2022-12-07T14:11:11;20.10;77.60
45060;DHT22;30799;49.060;9.312;2022-12-07T14:14:05;20.00;77.30
45060;DHT22;30799;49.060;9.312;2022-12-07T14:16:36;20.10;77.50
45060;DHT22;30799;49.060;9.312;2022-12-07T14:19:05;20.10;78.20
45060;DHT22;30799;49.060;9.312;2022-12-07T14:21:33;20.10;77.40
45060;DHT22;30799;49.060;9.312;2022-12-07T14:24:09;20.10;77.40
45060;DHT22;30799;49.060;9.312;2022-12-07T14:26:38;20.10;77.30
45060;DHT22;30799;49.060;9.312;2022-12-07T14:29:38;20.10;77.20
45060;DHT22;30799;49.060;9.312;2022-12-07T14:32:26;20.00;77.20
45060;DHT22;30799;49.060;9.312;2022-12-07T14:35:03;20.10;77.20
45060;DHT22;30799;49.060;9.312;2022-12-07T14:37:34;20.10;77.50
45060;DHT22;30799;49.060;9.312;2022-12-07T14:40:01;20.10;77.50
45060;DHT22;30799;49.060;9.312;2022-12-07T14:42:28;20.10;77.50
45060;DHT22;30799;49.060;9.312;2022-12-07T14:44:57;20.10;77.40
45060;DHT22;30799;49.060;9.312;2022-12-07T14:47:25;20.10;77.40
45060;DHT22;30799;49.060;9.312;2022-12-07T14:50:17;20.10;77.30
45060;DHT22;30799;49.060;9.312;2022-12-07T14:52:48;20.10;77.40
45060;DHT22;30799;49.060;9.312;2022-12-07T14:55:35;20.10;77.30
45060;DHT22;30799;49.060;9.312;2022-12-07T14:58:02;20.10;77.20
45060;DHT22;30799;49.060;9.312;2022-12-07T15:00:29;20.10;77.30
45060;DHT22;30799;49.060;9.312;2022-12-07T15:02:57;20.10;77.30
45060;DHT22;30799;49.060;9.312;2022-12-07T15:05:23;20.10;77.30
45060;DHT22;30799;49.060;9.312;2022-12-07T15:07:50;20.10;77.10
45060;DHT22;30799;49.060;9.312;2022-12-07T15:10:21;20.10;77.30
45060;DHT22;30799;49.060;9.312;2022-12-07T15:12:50;20.10;77.20
45060;DHT22;30799;49.060;9.312;2022-12-07T15:15:17;20.10;77.20
45060;DHT22;30799;49.060;9.312;2022-12-07T15:17:44;20.10;77.20
45060;DHT22;30799;49.060;9.312;2022-12-07T15:20:13;20.10;77.00
45060;DHT22;30799;49.060;9.312;2022-12-07T15:22:40;20.10;77.20
45060;DHT22;30799;49.060;9.312;2022-12-07T15:25:08;20.00;77.00
45060;DHT22;30799;49.060;9.312;2022-12-07T15:27:35;20.10;77.10
45060;DHT22;30799;49.060;9.312;2022-12-07T15:30:03;20.10;77.00
45060;DHT22;30799;49.060;9.312;2022-12-07T15:32:30;20.10;77.00
45060;DHT22;30799;49.060;9.312;2022-12-07T15:34:56;20.10;77.10
45060;DHT22;30799;49.060;9.312;2022-12-07T15:37:23;20.10;77.10
45060;DHT22;30799;49.060;9.312;2022-12-07T15:39:49;20.10;77.20
45060;DHT22;30799;49.060;9.312;2022-12-07T15:42:16;20.10;77.30
45060;DHT22;30799;49.060;9.312;2022-12-07T15:44:43;20.00;77.20
45060;DHT22;30799;49.060;9.312;2022-12-07T15:47:28;20.10;77.20
45060;DHT22;30799;49.060;9.312;2022-12-07T15:49:55;20.10;77.30
45060;DHT22;30799;49.060;9.312;2022-12-07T15:52:22;20.10;77.20
45060;DHT22;30799;49.060;9.312;2022-12-07T15:54:48;20.10;77.20
45060;DHT22;30799;49.060;9.312;2022-12-07T15:57:15;20.10;77.20
45060;DHT22;30799;49.060;9.312;2022-12-07T15:59:49;20.10;77.20
45060;DHT22;30799;49.060;9.312;2022-12-07T16:02:15;20.10;77.10
45060;DHT22;30799;49.060;9.312;2022-12-07T16:04:42;20.10;77.20
45060;DHT22;30799;49.060;9.312;2022-12-07T16:07:09;20.10;77.10
45060;DHT22;30799;49.060;9.312;2022-12-07T16:09:37;20.10;77.10
45060;DHT22;30799;49.060;9.312;2022-12-07T16:12:04;20.10;77.00
45060;DHT22;30799;49.060;9.312;2022-12-07T16:14:31;20.10;77.20
45060;DHT22;30799;49.060;9.312;2022-12-07T16:16:59;20.10;77.10
45060;DHT22;30799;49.060;9.312;2022-12-07T16:19:26;20.10;78.10
45060;DHT22;30799;49.060;9.312;2022-12-07T16:21:53;20.10;77.10
45060;DHT22;30799;49.060;9.312;2022-12-07T16:24:19;20.10;77.10
45060;DHT22;30799;49.060;9.312;2022-12-07T16:26:46;20.10;77.20
45060;DHT22;30799;49.060;9.312;2022-12-07T16:29:17;20.10;77.20
45060;DHT22;30799;49.060;9.312;2022-12-07T16:31:44;20.10;77.00
45060;DHT22;30799;49.060;9.312;2022-12-07T16:34:11;20.10;77.30
45060;DHT22;30799;49.060;9.312;2022-12-07T16:36:38;20.10;77.20
45060;DHT22;30799;49.060;9.312;2022-12-07T16:39:25;20.10;77.30
45060;DHT22;30799;49.060;9.312;2022-12-07T16:41:51;20.10;77.20
45060;DHT22;30799;49.060;9.312;2022-12-07T16:44:19;20.10;77.20
45060;DHT22;30799;49.060;9.312;2022-12-07T16:46:45;20.10;77.00
45060;DHT22;30799;49.060;9.312;2022-12-07T16:49:13;20.10;77.20
45060;DHT22;30799;49.060;9.312;2022-12-07T16:51:40;20.10;77.20
45060;DHT22;30799;49.060;9.312;2022-12-07T16:54:11;20.10;77.00
45060;DHT22;30799;49.060;9.312;2022-12-07T16:56:38;20.10;77.20
45060;DHT22;30799;49.060;9.312;2022-12-07T16:59:05;20.10;77.20
45060;DHT22;30799;49.060;9.312;2022-12-07T17:01:31;20.10;77.10
45060;DHT22;30799;49.060;9.312;2022-12-07T17:03:58;20.10;76.90
45060;DHT22;30799;49.060;9.312;2022-12-07T17:06:26;20.10;77.00
45060;DHT22;30799;49.060;9.312;2022-12-07T17:08:54;20.10;77.10
45060;DHT22;30799;49.060;9.312;2022-12-07T17:11:23;20.10;77.00
45060;DHT22;30799;49.060;9.312;2022-12-07T17:13:51;20.10;77.00
45060;DHT22;30799;49.060;9.312;2022-12-07T17:16:37;20.10;77.00
45060;DHT22;30799;49.060;9.312;2022-12-07T17:19:05;20.10;77.00
45060;DHT22;30799;49.060;9.312;2022-12-07T17:21:32;20.10;77.20
45060;DHT22;30799;49.060;9.312;2022-12-07T17:24:00;20.10;77.20
45060;DHT22;30799;49.060;9.312;2022-12-07T17:26:28;20.10;77.30
45060;DHT22;30799;49.060;9.312;2022-12-07T17:29:02;20.10;77.20
45060;DHT22;30799;49.060;9.312;2022-12-07T17:31:29;20.10;77.20
45060;DHT22;30799;49.060;9.312;2022-12-07T17:33:56;20.10;77.10